No particular awareness of the weather is required.    There are no Weather-warnings


Meteo18 Weather Cam more information Meteo18 Weather Cam


Thunder radar more information blitzortung!


Rain radar more information rain snow radar


Visit our other weather sites:

Template documentation
and downloads

And another site



Weather Underground History page Text

Daily Summary for January 11, 2018 Units:  Metric    English   Both
« Previous Day
Next Day »
Daily Weekly Monthly Yearly Custom
  High: Low: Average:
Temperature: -17.8 °C -15.6 °C -14.4 °C
Dew Point: -17.8 °C -15.9 °C -14.8 °C
Humidity: Humidity % 84 % 94 %
Wind Speed: 0 km/h 0 km/h 1.4 km/h
Wind Gust: 0 km/h - -
Wind:- - WSW
Pressure: 0 hPa 34198.6 hPa -
Precipitation: 91.44 mm    
Historical Graphs
 
 
Tabular Data for January 11, 2018
Time Temperature Dew Point Pressure Wind Wind Speed Wind Gust Humidity Rainfall Rate (Hourly)
-17.8 °C -17.8 °C 0 hPa Calm     Humidity % 0 mm
01:00 -15.6 °C -15.8 °C 34212.1 hPa Calm   2.6 km/h 97 % 0 mm
01:06 -15.4 °C -15.7 °C 34212.1 hPa Calm     97 % 0 mm
01:12 -15.5 °C -15.8 °C 34212.1 hPa Calm     96 % 12.7 mm
01:18 -15.4 °C -15.7 °C 34212.1 hPa Calm     97 % 12.7 mm
01:30 -15.4 °C -15.6 °C 34198.6 hPa East 2.3 km/h 2.6 km/h 97 % 12.7 mm
01:36 -15.4 °C -15.6 °C 34198.6 hPa Calm   2.6 km/h 97 % 12.7 mm
01:49 -15.4 °C -15.8 °C 34198.6 hPa Calm   2.6 km/h 96 % 12.7 mm
01:55 -15.5 °C -15.8 °C 34198.6 hPa Calm   2.6 km/h 96 % 12.7 mm
02:01 -15.5 °C -15.7 °C 34198.6 hPa Calm     97 % 12.7 mm
02:07 -15.6 °C -15.9 °C 34212.1 hPa Calm     96 % 12.7 mm
02:15 -15.6 °C -15.8 °C 34198.6 hPa Calm   5.1 km/h 97 % 7.62 mm
02:19 -15.5 °C -15.7 °C 34198.6 hPa Calm   2.6 km/h 97 % 12.7 mm
02:21 -15.5 °C -15.7 °C 34198.6 hPa Calm   2.6 km/h 97 % 12.7 mm
02:27 -15.4 °C -15.7 °C 34198.6 hPa Calm   2.6 km/h 97 % 12.7 mm
02:35 -15.4 °C -15.6 °C 34212.1 hPa Calm   2.6 km/h 97 % 12.7 mm
02:41 -15.4 °C -15.6 °C 34212.1 hPa Calm     97 % 12.7 mm
02:47 -15.4 °C -15.6 °C 34212.1 hPa Calm     97 % 20.32 mm
02:53 -15.3 °C -15.6 °C 34212.1 hPa Calm     97 % 20.32 mm
03:03 -15.4 °C -15.6 °C 34212.1 hPa Calm     97 % 25.4 mm
03:09 -15.3 °C -15.6 °C 34212.1 hPa Calm     97 % 25.4 mm
03:15 -15.3 °C -15.6 °C 34212.1 hPa Calm     97 % 33.02 mm
03:21 -15.3 °C -15.6 °C 34222.3 hPa NE 2.3 km/h 5.1 km/h 97 % 33.02 mm
03:35 -15.3 °C -15.6 °C 34222.3 hPa Calm   2.6 km/h 97 % 33.02 mm
03:41 -15.3 °C -15.6 °C 34222.3 hPa Calm   2.6 km/h 97 % 33.02 mm
03:47 -15.3 °C -15.6 °C 34222.3 hPa Calm   2.6 km/h 97 % 25.4 mm
03:53 -15.2 °C -15.4 °C 34222.3 hPa Calm     97 % 25.4 mm
04:06 -15.2 °C -15.4 °C 34222.3 hPa Calm     97 % 25.4 mm
04:11 -15.2 °C -15.4 °C 34222.3 hPa Calm     97 % 12.7 mm
04:18 -15.3 °C -15.5 °C 34222.3 hPa Calm   2.6 km/h 97 % 12.7 mm
04:24 -15.4 °C -15.6 °C 34222.3 hPa Calm     97 % 0 mm
04:30 -15.4 °C -15.6 °C 34222.3 hPa Calm     97 % 0 mm
04:36 -15.3 °C -15.6 °C 34222.3 hPa Calm     97 % 0 mm
04:42 -15.3 °C -15.6 °C 34222.3 hPa Calm     97 % 0 mm
04:48 -15.3 °C -15.6 °C 34222.3 hPa Calm     97 % 0 mm
04:54 -15.3 °C -15.6 °C 34222.3 hPa Calm     97 % 0 mm
05:00 -15.3 °C -15.5 °C 34222.3 hPa Calm     97 % 0 mm
05:08 -15.2 °C -15.4 °C 34222.3 hPa Calm     97 % 0 mm
05:14 -15.2 °C -15.4 °C 34222.3 hPa Calm     97 % 0 mm
05:20 -15.2 °C -15.4 °C 34222.3 hPa Calm     97 % 0 mm
05:34 -15.2 °C -15.4 °C 34235.8 hPa Calm     97 % 0 mm
05:40 -15.2 °C -15.4 °C 34222.3 hPa Calm     97 % 7.62 mm
05:46 -15.2 °C -15.4 °C 34235.8 hPa Calm     97 % 7.62 mm
05:52 -15.2 °C -15.4 °C 34235.8 hPa Calm     97 % 7.62 mm
05:59 -15.2 °C -15.4 °C 34235.8 hPa Calm     97 % 7.62 mm
06:05 -15.2 °C -15.4 °C 34235.8 hPa Calm     97 % 7.62 mm
06:31 -15.2 °C -15.4 °C 34246 hPa Calm     97 % 7.62 mm
06:43 -15.1 °C -15.3 °C 34246 hPa Calm     97 % 0 mm
06:49 -15.1 °C -15.3 °C 34256.2 hPa Calm     97 % 0 mm
07:01 -15.1 °C -15.3 °C 34256.2 hPa Calm   2.6 km/h 97 % 0 mm
07:07 -15 °C -15.2 °C 34256.2 hPa Calm   2.6 km/h 97 % 0 mm
07:13 -15.1 °C -15.3 °C 34256.2 hPa Calm     97 % 0 mm
07:19 -15.1 °C -15.3 °C 34256.2 hPa Calm   2.6 km/h 97 % 0 mm
07:25 -15.1 °C -15.3 °C 34256.2 hPa Calm   2.6 km/h 97 % 0 mm
07:31 -15.1 °C -15.3 °C 34269.7 hPa Calm     97 % 0 mm
07:37 -15.1 °C -15.3 °C 34269.7 hPa East 2.3 km/h 2.6 km/h 97 % 0 mm
07:43 -15.1 °C -15.3 °C 34269.7 hPa Calm     97 % 0 mm
07:51 -15.1 °C -15.3 °C 34269.7 hPa Calm     97 % 0 mm
07:59 -15.1 °C -15.3 °C 34279.9 hPa Calm   2.6 km/h 97 % 0 mm
08:05 -15.1 °C -15.3 °C 34279.9 hPa Calm     97 % 0 mm
08:11 -14.9 °C -15.2 °C 34279.9 hPa Calm   2.6 km/h 97 % 0 mm
08:23 -14.9 °C -15.2 °C 34293.4 hPa Calm     97 % 0 mm
08:33 -14.9 °C -15.1 °C 34293.4 hPa Calm   2.6 km/h 97 % 0 mm
08:41 -14.9 °C -15.1 °C 34293.4 hPa Calm     97 % 0 mm
08:47 -14.9 °C -15.1 °C 34293.4 hPa Calm     97 % 0 mm
08:59 -14.9 °C -15.1 °C 34303.6 hPa Calm     97 % 0 mm
09:05 -14.9 °C -15.1 °C 34313.7 hPa Calm     97 % 0 mm
09:11 -14.8 °C -15.1 °C 34313.7 hPa Calm     97 % 0 mm
09:17 -14.8 °C -15.1 °C 34313.7 hPa SW 5.1 km/h 5.1 km/h 97 % 0 mm
09:23 -14.8 °C -15.1 °C 34313.7 hPa SSW 2.3 km/h 2.6 km/h 97 % 0 mm
09:29 -14.8 °C -15 °C 34313.7 hPa SSW 2.3 km/h 5.1 km/h 97 % 0 mm
09:35 -14.8 °C -15 °C 34327.3 hPa Calm   2.6 km/h 97 % 0 mm
09:41 -14.7 °C -14.9 °C 34327.3 hPa SW 2.3 km/h 5.1 km/h 97 % 0 mm
09:50 -14.6 °C -14.8 °C 34337.4 hPa Calm   2.6 km/h 97 % 0 mm
09:57 -14.6 °C -14.8 °C 34337.4 hPa Calm   5.1 km/h 97 % 0 mm
10:03 -14.6 °C -14.8 °C 34347.6 hPa SW 2.3 km/h 7.7 km/h 97 % 0 mm
10:09 -14.5 °C -14.7 °C 34347.6 hPa SSW 2.3 km/h 5.1 km/h 97 % 0 mm
10:15 -14.4 °C -14.7 °C 34347.6 hPa South 2.3 km/h 10.3 km/h 97 % 0 mm
10:21 -14.4 °C -14.6 °C 34347.6 hPa SW 2.3 km/h 5.1 km/h 97 % 0 mm
10:27 -14.4 °C -14.6 °C 34347.6 hPa SW 2.3 km/h 5.1 km/h 97 % 0 mm
10:33 -14.3 °C -14.6 °C 34361.1 hPa SW 2.3 km/h 5.1 km/h 97 % 0 mm
10:41 -14.3 °C -14.6 °C 34361.1 hPa Calm     97 % 0 mm
10:47 -14.3 °C -14.5 °C 34361.1 hPa SW 2.3 km/h 5.1 km/h 97 % 0 mm
10:59 -14.2 °C -14.4 °C 34371.3 hPa SW 5.1 km/h 10.3 km/h 97 % 0 mm
11:05 -14.1 °C -14.3 °C 34371.3 hPa West 2.3 km/h 5.1 km/h 97 % 0 mm
11:11 -14.1 °C -14.3 °C 34371.3 hPa WSW 2.3 km/h 10.3 km/h 97 % 0 mm
11:17 -14.1 °C -14.3 °C 34371.3 hPa WSW 7.6 km/h 7.7 km/h 97 % 0 mm
11:23 -14 °C -14.3 °C 34384.8 hPa West 7.6 km/h 7.7 km/h 96 % 0 mm
11:29 -13.9 °C -14.3 °C 34384.8 hPa West 5.1 km/h 5.1 km/h 96 % 0 mm
11:47 -13.8 °C -14.2 °C 34384.8 hPa West 2.3 km/h 10.3 km/h 95 % 0 mm
11:59 -13.8 °C -14.3 °C 34384.8 hPa WSW 10.3 km/h 15.6 km/h 94 % 0 mm
12:05 -13.7 °C -14.2 °C 34384.8 hPa West 5.1 km/h 5.1 km/h 94 % 0 mm
12:17 -13.7 °C -14.3 °C 34395 hPa West 5.1 km/h 7.7 km/h 93 % 0 mm
12:23 -13.7 °C -14.3 °C 34395 hPa WSW 2.3 km/h 7.7 km/h 93 % 0 mm
12:29 -13.6 °C -14.2 °C 34395 hPa WSW 7.6 km/h 7.7 km/h 93 % 0 mm
12:35 -13.6 °C -14.2 °C 34395 hPa Calm   5.1 km/h 92 % 0 mm
12:41 -13.6 °C -14.2 °C 34395 hPa Calm   2.6 km/h 92 % 0 mm
12:48 -13.5 °C -14.2 °C 34395 hPa Calm   5.1 km/h 92 % 0 mm
12:54 -13.5 °C -14.3 °C 34395 hPa Calm   2.6 km/h 91 % 0 mm
13:08 -13.4 °C -14.2 °C 34395 hPa Calm   5.1 km/h 91 % 0 mm
13:14 -13.4 °C -14.2 °C 34395 hPa SW 2.3 km/h 10.3 km/h 91 % 0 mm
13:22 -13.4 °C -14.1 °C 34395 hPa Calm   5.1 km/h 92 % 0 mm
13:28 -13.4 °C -14.1 °C 34395 hPa WNW 5.1 km/h 7.7 km/h 92 % 0 mm
13:34 -13.4 °C -14.2 °C 34395 hPa West 2.3 km/h 5.1 km/h 91 % 0 mm
13:40 -13.4 °C -14.2 °C 34395 hPa WNW 7.6 km/h 12.9 km/h 91 % 0 mm
13:46 -13.2 °C -14.1 °C 34395 hPa Calm   2.6 km/h 90 % 0 mm
13:52 -13.3 °C -14.2 °C 34395 hPa WNW 7.6 km/h 12.9 km/h 89 % 0 mm
13:58 -13.3 °C -14.2 °C 34395 hPa WNW 2.3 km/h 7.7 km/h 89 % 0 mm
14:04 -13.3 °C -14.3 °C 34395 hPa Calm   12.9 km/h 88 % 0 mm
14:10 -13.3 °C -14.3 °C 34405.1 hPa Calm   5.1 km/h 88 % 0 mm
14:16 -13.2 °C -14.3 °C 34405.1 hPa West 5.1 km/h 5.1 km/h 88 % 0 mm
14:22 -13.2 °C -14.3 °C 34405.1 hPa Calm   5.1 km/h 87 % 0 mm
14:28 -13 °C -14.1 °C 34405.1 hPa Calm   5.1 km/h 87 % 0 mm
14:38 -13.1 °C -14.5 °C 34405.1 hPa WNW 5.1 km/h 5.1 km/h 84 % 0 mm
14:44 -13.1 °C -14.5 °C 34418.7 hPa NNW 5.1 km/h 10.3 km/h 84 % 0 mm
14:50 -13.1 °C -14.5 °C 34418.7 hPa NW 5.1 km/h 15.6 km/h 84 % 0 mm
14:56 -13.2 °C -14.5 °C 34418.7 hPa NNW 10.3 km/h 10.3 km/h 85 % 0 mm
15:06 -13.3 °C -14.4 °C 34428.8 hPa Calm   5.1 km/h 87 % 0 mm
15:12 -13.3 °C -14.4 °C 34428.8 hPa Calm   2.6 km/h 87 % 0 mm
15:18 -13.2 °C -14.3 °C 34428.8 hPa West 2.3 km/h 5.1 km/h 87 % 0 mm
15:24 -13.2 °C -14.3 °C 34428.8 hPa Calm   2.6 km/h 87 % 0 mm
15:30 -13.2 °C -14.4 °C 34428.8 hPa Calm   7.7 km/h 86 % 0 mm
15:36 -13.3 °C -14.4 °C 34428.8 hPa West 5.1 km/h 7.7 km/h 87 % 0 mm
15:46 -13.2 °C -14.3 °C 34442.4 hPa Calm   5.1 km/h 88 % 0 mm
15:52 -13.2 °C -14.3 °C 34442.4 hPa WNW 7.6 km/h 7.7 km/h 87 % 0 mm
15:58 -13.3 °C -14.4 °C 34442.4 hPa WNW 7.6 km/h 12.9 km/h 87 % 0 mm
16:04 -13.3 °C -14.4 °C 34442.4 hPa West 5.1 km/h 5.1 km/h 87 % 0 mm
16:10 -13.3 °C -14.4 °C 34452.6 hPa Calm   7.7 km/h 87 % 0 mm
16:16 -13.3 °C -14.4 °C 34452.6 hPa Calm   2.6 km/h 87 % 0 mm
16:33 -13.4 °C -14.4 °C 34462.7 hPa Calm   2.6 km/h 88 % 0 mm
16:38 -13.4 °C -14.4 °C 34462.7 hPa Calm   5.1 km/h 88 % 0 mm
16:44 -13.4 °C -14.4 °C 34462.7 hPa Calm   2.6 km/h 88 % 0 mm
16:52 -13.4 °C -14.5 °C 34462.7 hPa Calm   2.6 km/h 88 % 0 mm
16:58 -13.4 °C -14.5 °C 34462.7 hPa WNW 2.3 km/h 2.6 km/h 88 % 0 mm
17:06 -13.4 °C -14.5 °C 34462.7 hPa NNW 2.3 km/h 7.7 km/h 88 % 0 mm
17:12 -13.5 °C -14.6 °C 34476.3 hPa Calm   7.7 km/h 88 % 0 mm
17:14 -13.5 °C -14.6 °C 34476.3 hPa WNW 2.3 km/h 12.9 km/h 88 % 0 mm
17:18 -13.5 °C -14.6 °C 34476.3 hPa NW 2.3 km/h 10.3 km/h 88 % 0 mm
17:28 -13.7 °C -14.5 °C 34476.3 hPa WNW 2.3 km/h 5.1 km/h 90 % 0 mm
17:36 -13.8 °C -14.6 °C 34486.4 hPa NW 2.3 km/h 5.1 km/h 91 % 0 mm
17:44 -13.8 °C -14.5 °C 34486.4 hPa WNW 2.3 km/h 7.7 km/h 92 % 0 mm
17:52 -13.9 °C -14.6 °C 34496.6 hPa WNW 5.1 km/h 7.7 km/h 93 % 7.62 mm
17:58 -13.9 °C -14.6 °C 34496.6 hPa West 7.6 km/h 10.3 km/h 93 % 7.62 mm
18:04 -13.9 °C -14.6 °C 34496.6 hPa Calm   7.7 km/h 93 % 7.62 mm
18:16 -13.9 °C -14.4 °C 34496.6 hPa WNW 2.3 km/h 5.1 km/h 94 % 7.62 mm
18:25 -13.9 °C -14.6 °C 34496.6 hPa WNW 2.3 km/h 5.1 km/h 93 % 7.62 mm
18:31 -14 °C -14.6 °C 34496.6 hPa Calm   2.6 km/h 93 % 7.62 mm
18:37 -14 °C -14.6 °C 34496.6 hPa Calm   5.1 km/h 93 % 7.62 mm
18:43 -14 °C -14.5 °C 34510.1 hPa WNW 2.3 km/h 2.6 km/h 94 % 7.62 mm
18:55 -14.1 °C -14.6 °C 34510.1 hPa Calm   2.6 km/h 94 % 0 mm
19:01 -14.1 °C -14.6 °C 34510.1 hPa Calm     94 % 0 mm
19:07 -14.1 °C -14.6 °C 34510.1 hPa Calm     94 % 0 mm
19:13 -14.1 °C -14.6 °C 34510.1 hPa Calm   2.6 km/h 94 % 0 mm
19:23 -14.1 °C -14.6 °C 34520.3 hPa Calm     94 % 0 mm
19:31 -14.1 °C -14.6 °C 34520.3 hPa Calm     94 % 0 mm
19:37 -14.2 °C -14.7 °C 34520.3 hPa Calm     94 % 0 mm
19:43 -14.2 °C -14.6 °C 34520.3 hPa Calm     95 % 0 mm
19:49 -14.2 °C -14.6 °C 34520.3 hPa Calm     95 % 0 mm
19:55 -14.2 °C -14.6 °C 34533.8 hPa Calm     95 % 0 mm
20:01 -14.2 °C -14.6 °C 34533.8 hPa Calm     95 % 0 mm
20:07 -14.2 °C -14.6 °C 34533.8 hPa Calm   2.6 km/h 95 % 0 mm
20:16 -14.1 °C -14.5 °C 34533.8 hPa Calm     95 % 0 mm
20:22 -14.1 °C -14.5 °C 34533.8 hPa Calm     95 % 0 mm
20:28 -14.1 °C -14.5 °C 34544 hPa Calm     95 % 0 mm
20:34 -14.1 °C -14.5 °C 34544 hPa Calm     95 % 0 mm
20:40 -14.1 °C -14.5 °C 34544 hPa Calm     95 % 0 mm
20:46 -14.1 °C -14.6 °C 34544 hPa Calm     94 % 0 mm
20:52 -14.1 °C -14.6 °C 34544 hPa Calm     94 % 0 mm
20:58 -14.1 °C -14.6 °C 34554.1 hPa Calm     94 % 0 mm
21:04 -14.1 °C -14.5 °C 34554.1 hPa Calm   2.6 km/h 95 % 0 mm
21:10 -14.1 °C -14.5 °C 34554.1 hPa Calm   2.6 km/h 95 % 0 mm
21:16 -14.2 °C -14.6 °C 34554.1 hPa Calm     95 % 0 mm
21:26 -14.2 °C -14.6 °C 34554.1 hPa Calm     95 % 0 mm
21:32 -14.2 °C -14.6 °C 34554.1 hPa Calm   2.6 km/h 95 % 0 mm
21:38 -14.2 °C -14.6 °C 34554.1 hPa Calm     95 % 0 mm
21:44 -14.2 °C -14.6 °C 34567.7 hPa Calm     95 % 0 mm
21:50 -14.2 °C -14.6 °C 34567.7 hPa Calm   2.6 km/h 95 % 0 mm
22:08 -14.2 °C -14.6 °C 34567.7 hPa Calm   2.6 km/h 96 % 7.62 mm
22:15 -14.2 °C -14.6 °C 34567.7 hPa Calm   2.6 km/h 96 % 7.62 mm
22:31 -14.2 °C -14.6 °C 34577.8 hPa Calm   5.1 km/h 96 % 12.7 mm
22:43 -14.2 °C -14.6 °C 34577.8 hPa North 7.6 km/h 10.3 km/h 96 % 12.7 mm
22:49 -14.2 °C -14.6 °C 34577.8 hPa NW 2.3 km/h 10.3 km/h 96 % 12.7 mm
22:57 -14.2 °C -14.6 °C 34577.8 hPa NNE 5.1 km/h 12.9 km/h 96 % 12.7 mm
23:03 -14.2 °C -14.6 °C 34577.8 hPa NNW 10.3 km/h 23.3 km/h 96 % 12.7 mm
23:09 -14.2 °C -14.6 °C 34577.8 hPa North 7.6 km/h 10.3 km/h 96 % 12.7 mm
23:15 -14.2 °C -14.6 °C 34577.8 hPa North 7.6 km/h 15.6 km/h 96 % 12.7 mm
23:21 -14.3 °C -14.6 °C 34577.8 hPa NNE 5.1 km/h 15.6 km/h 96 % 12.7 mm
23:27 -14.3 °C -14.6 °C 34591.4 hPa WNW 2.3 km/h 7.7 km/h 96 % 12.7 mm
23:51 -14.3 °C -14.6 °C 34591.4 hPa NE 5.1 km/h 7.7 km/h 96 % 12.7 mm
23:57 -14.3 °C -14.7 °C 34591.4 hPa North 7.6 km/h 12.9 km/h 96 % 7.62 mm
Meteo18
Compliments of Weather Underground - 4 mb

Script developed by  Jim McMurry - jmcmurry@mwt.net Adapted for the template by  Wim van der Kuil - Leuven-Template.eu

You find our weather info also at:

European Weather Network

Weather Underground

Equipment we use:

Weather-station
Davis Vue

Weather-program
Meteobridge

Weather-server
Raspberry PI 2 B+

Provider
1 and 1

Davis Vue

Meteobridge

Raspberry PI 2 B+

1 and 1